sensor_id;sensor_type;location;lat;lon;timestamp;P1;durP1;ratioP1;P2;durP2;ratioP2
77111;SDS011;66064;50.226;14.344;2023-03-01T00:02:20;52.40;;;40.83;;
77111;SDS011;66064;50.226;14.344;2023-03-01T00:04:47;54.40;;;45.22;;
77111;SDS011;66064;50.226;14.344;2023-03-01T00:07:12;48.05;;;42.70;;
77111;SDS011;66064;50.226;14.344;2023-03-01T00:09:39;55.45;;;36.15;;
77111;SDS011;66064;50.226;14.344;2023-03-01T00:12:05;51.83;;;40.38;;
77111;SDS011;66064;50.226;14.344;2023-03-01T00:14:32;44.47;;;38.05;;
77111;SDS011;66064;50.226;14.344;2023-03-01T00:16:58;67.95;;;43.75;;
77111;SDS011;66064;50.226;14.344;2023-03-01T00:19:24;62.38;;;43.22;;
77111;SDS011;66064;50.226;14.344;2023-03-01T00:21:49;60.92;;;54.08;;
77111;SDS011;66064;50.226;14.344;2023-03-01T00:24:16;68.60;;;51.88;;
77111;SDS011;66064;50.226;14.344;2023-03-01T00:26:42;58.47;;;47.05;;
77111;SDS011;66064;50.226;14.344;2023-03-01T00:29:08;67.03;;;51.58;;
77111;SDS011;66064;50.226;14.344;2023-03-01T00:31:34;53.03;;;44.45;;
77111;SDS011;66064;50.226;14.344;2023-03-01T00:34:01;48.72;;;43.67;;
77111;SDS011;66064;50.226;14.344;2023-03-01T00:36:30;69.30;;;50.00;;
77111;SDS011;66064;50.226;14.344;2023-03-01T00:38:58;65.13;;;44.95;;
77111;SDS011;66064;50.226;14.344;2023-03-01T00:41:24;60.60;;;43.08;;
77111;SDS011;66064;50.226;14.344;2023-03-01T00:43:52;63.58;;;53.53;;
77111;SDS011;66064;50.226;14.344;2023-03-01T00:46:19;57.42;;;47.08;;
77111;SDS011;66064;50.226;14.344;2023-03-01T00:48:47;62.50;;;45.90;;
77111;SDS011;66064;50.226;14.344;2023-03-01T00:51:17;67.90;;;51.88;;
77111;SDS011;66064;50.226;14.344;2023-03-01T00:53:45;45.38;;;36.78;;
77111;SDS011;66064;50.226;14.344;2023-03-01T00:56:12;56.65;;;48.20;;
77111;SDS011;66064;50.226;14.344;2023-03-01T00:58:40;77.95;;;53.08;;
77111;SDS011;66064;50.226;14.344;2023-03-01T01:01:10;57.35;;;47.42;;
77111;SDS011;66064;50.226;14.344;2023-03-01T01:06:47;47.53;;;42.67;;
77111;SDS011;66064;50.226;14.344;2023-03-01T01:09:14;68.53;;;62.65;;
77111;SDS011;66064;50.226;14.344;2023-03-01T01:11:51;43.25;;;38.08;;
77111;SDS011;66064;50.226;14.344;2023-03-01T01:14:18;39.63;;;35.60;;
77111;SDS011;66064;50.226;14.344;2023-03-01T01:16:44;46.33;;;41.05;;
77111;SDS011;66064;50.226;14.344;2023-03-01T01:19:11;50.25;;;44.70;;
77111;SDS011;66064;50.226;14.344;2023-03-01T01:21:37;55.22;;;44.33;;
77111;SDS011;66064;50.226;14.344;2023-03-01T01:24:03;41.95;;;36.60;;
77111;SDS011;66064;50.226;14.344;2023-03-01T01:26:31;53.63;;;38.17;;
77111;SDS011;66064;50.226;14.344;2023-03-01T01:28:59;38.15;;;34.50;;
77111;SDS011;66064;50.226;14.344;2023-03-01T01:31:27;41.30;;;33.97;;
77111;SDS011;66064;50.226;14.344;2023-03-01T01:33:54;41.35;;;37.63;;
77111;SDS011;66064;50.226;14.344;2023-03-01T01:36:21;38.30;;;34.83;;
77111;SDS011;66064;50.226;14.344;2023-03-01T01:38:47;41.85;;;38.00;;
77111;SDS011;66064;50.226;14.344;2023-03-01T01:41:13;43.17;;;37.10;;
77111;SDS011;66064;50.226;14.344;2023-03-01T01:43:44;44.97;;;34.63;;
77111;SDS011;66064;50.226;14.344;2023-03-01T01:46:32;48.65;;;44.55;;
77111;SDS011;66064;50.226;14.344;2023-03-01T01:49:00;41.13;;;35.72;;
77111;SDS011;66064;50.226;14.344;2023-03-01T01:51:29;40.38;;;36.53;;
77111;SDS011;66064;50.226;14.344;2023-03-01T01:54:08;36.67;;;32.83;;
77111;SDS011;66064;50.226;14.344;2023-03-01T01:56:42;37.47;;;33.63;;
77111;SDS011;66064;50.226;14.344;2023-03-01T01:59:12;45.88;;;41.55;;
77111;SDS011;66064;50.226;14.344;2023-03-01T02:01:38;33.25;;;30.02;;
77111;SDS011;66064;50.226;14.344;2023-03-01T02:04:04;68.03;;;62.75;;
77111;SDS011;66064;50.226;14.344;2023-03-01T02:06:36;38.88;;;35.05;;
77111;SDS011;66064;50.226;14.344;2023-03-01T02:09:14;41.92;;;36.72;;
77111;SDS011;66064;50.226;14.344;2023-03-01T02:11:42;42.33;;;31.73;;
77111;SDS011;66064;50.226;14.344;2023-03-01T02:14:09;42.05;;;35.63;;
77111;SDS011;66064;50.226;14.344;2023-03-01T02:16:36;41.00;;;36.15;;
77111;SDS011;66064;50.226;14.344;2023-03-01T02:19:02;41.10;;;35.83;;
77111;SDS011;66064;50.226;14.344;2023-03-01T02:27:09;35.38;;;31.77;;
77111;SDS011;66064;50.226;14.344;2023-03-01T02:29:35;36.78;;;32.95;;
77111;SDS011;66064;50.226;14.344;2023-03-01T02:32:01;41.38;;;37.40;;
77111;SDS011;66064;50.226;14.344;2023-03-01T02:34:29;36.45;;;33.35;;
77111;SDS011;66064;50.226;14.344;2023-03-01T02:37:00;37.67;;;33.92;;
77111;SDS011;66064;50.226;14.344;2023-03-01T02:39:34;39.90;;;35.90;;
77111;SDS011;66064;50.226;14.344;2023-03-01T02:42:08;38.15;;;34.15;;
77111;SDS011;66064;50.226;14.344;2023-03-01T02:44:38;39.97;;;35.47;;
77111;SDS011;66064;50.226;14.344;2023-03-01T02:47:04;42.63;;;36.17;;
77111;SDS011;66064;50.226;14.344;2023-03-01T02:49:32;38.72;;;33.05;;
77111;SDS011;66064;50.226;14.344;2023-03-01T02:55:20;36.40;;;32.67;;
77111;SDS011;66064;50.226;14.344;2023-03-01T02:57:46;36.17;;;33.00;;
77111;SDS011;66064;50.226;14.344;2023-03-01T03:05:24;47.25;;;44.30;;
77111;SDS011;66064;50.226;14.344;2023-03-01T03:07:54;43.72;;;40.05;;
77111;SDS011;66064;50.226;14.344;2023-03-01T03:10:22;42.90;;;35.03;;
77111;SDS011;66064;50.226;14.344;2023-03-01T03:12:53;43.60;;;39.05;;
77111;SDS011;66064;50.226;14.344;2023-03-01T03:15:21;39.33;;;35.75;;
77111;SDS011;66064;50.226;14.344;2023-03-01T03:17:48;45.30;;;38.35;;
77111;SDS011;66064;50.226;14.344;2023-03-01T03:20:16;38.60;;;35.05;;
77111;SDS011;66064;50.226;14.344;2023-03-01T03:22:46;55.28;;;45.85;;
77111;SDS011;66064;50.226;14.344;2023-03-01T03:25:18;44.88;;;39.50;;
77111;SDS011;66064;50.226;14.344;2023-03-01T03:27:46;37.13;;;33.20;;
77111;SDS011;66064;50.226;14.344;2023-03-01T03:30:15;40.08;;;36.15;;
77111;SDS011;66064;50.226;14.344;2023-03-01T03:32:44;46.85;;;40.92;;
77111;SDS011;66064;50.226;14.344;2023-03-01T03:35:19;56.55;;;51.95;;
77111;SDS011;66064;50.226;14.344;2023-03-01T03:37:49;43.17;;;38.53;;
77111;SDS011;66064;50.226;14.344;2023-03-01T03:40:29;45.72;;;36.45;;
77111;SDS011;66064;50.226;14.344;2023-03-01T03:42:57;42.03;;;37.95;;
77111;SDS011;66064;50.226;14.344;2023-03-01T03:45:23;48.95;;;43.97;;
77111;SDS011;66064;50.226;14.344;2023-03-01T03:47:49;47.40;;;41.65;;
77111;SDS011;66064;50.226;14.344;2023-03-01T03:50:16;67.57;;;55.13;;
77111;SDS011;66064;50.226;14.344;2023-03-01T03:52:43;47.97;;;42.85;;
77111;SDS011;66064;50.226;14.344;2023-03-01T03:55:10;54.10;;;47.95;;
77111;SDS011;66064;50.226;14.344;2023-03-01T03:57:37;46.63;;;41.38;;
77111;SDS011;66064;50.226;14.344;2023-03-01T04:00:05;54.03;;;42.75;;
77111;SDS011;66064;50.226;14.344;2023-03-01T04:02:38;49.45;;;41.97;;
77111;SDS011;66064;50.226;14.344;2023-03-01T04:05:06;54.53;;;45.67;;
77111;SDS011;66064;50.226;14.344;2023-03-01T04:07:33;54.25;;;47.75;;
77111;SDS011;66064;50.226;14.344;2023-03-01T04:10:01;59.65;;;51.97;;
77111;SDS011;66064;50.226;14.344;2023-03-01T04:12:32;66.18;;;50.90;;
77111;SDS011;66064;50.226;14.344;2023-03-01T04:15:02;55.28;;;46.38;;
77111;SDS011;66064;50.226;14.344;2023-03-01T04:17:42;59.80;;;47.05;;
77111;SDS011;66064;50.226;14.344;2023-03-01T04:20:10;58.22;;;52.58;;
77111;SDS011;66064;50.226;14.344;2023-03-01T04:22:38;66.93;;;58.50;;
77111;SDS011;66064;50.226;14.344;2023-03-01T04:25:05;74.15;;;62.60;;
77111;SDS011;66064;50.226;14.344;2023-03-01T04:27:35;82.03;;;65.07;;
77111;SDS011;66064;50.226;14.344;2023-03-01T04:30:02;81.70;;;59.08;;
77111;SDS011;66064;50.226;14.344;2023-03-01T04:32:28;54.53;;;42.20;;
77111;SDS011;66064;50.226;14.344;2023-03-01T04:34:54;50.42;;;45.47;;
77111;SDS011;66064;50.226;14.344;2023-03-01T04:37:20;51.10;;;42.40;;
77111;SDS011;66064;50.226;14.344;2023-03-01T04:39:46;54.20;;;45.90;;
77111;SDS011;66064;50.226;14.344;2023-03-01T04:42:13;57.15;;;51.40;;
77111;SDS011;66064;50.226;14.344;2023-03-01T04:44:40;50.75;;;45.70;;
77111;SDS011;66064;50.226;14.344;2023-03-01T04:47:09;47.95;;;42.42;;
77111;SDS011;66064;50.226;14.344;2023-03-01T04:49:39;53.35;;;47.65;;
77111;SDS011;66064;50.226;14.344;2023-03-01T04:52:04;59.33;;;46.83;;
77111;SDS011;66064;50.226;14.344;2023-03-01T04:54:32;66.50;;;50.10;;
77111;SDS011;66064;50.226;14.344;2023-03-01T04:56:59;48.83;;;43.60;;
77111;SDS011;66064;50.226;14.344;2023-03-01T04:59:25;47.63;;;42.83;;
77111;SDS011;66064;50.226;14.344;2023-03-01T05:01:52;55.55;;;47.88;;
77111;SDS011;66064;50.226;14.344;2023-03-01T05:04:21;44.92;;;40.38;;
77111;SDS011;66064;50.226;14.344;2023-03-01T05:06:50;51.83;;;44.55;;
77111;SDS011;66064;50.226;14.344;2023-03-01T05:09:16;53.30;;;47.47;;
77111;SDS011;66064;50.226;14.344;2023-03-01T05:11:42;50.38;;;41.47;;
77111;SDS011;66064;50.226;14.344;2023-03-01T05:14:09;49.88;;;44.17;;
77111;SDS011;66064;50.226;14.344;2023-03-01T05:16:35;47.35;;;42.60;;
77111;SDS011;66064;50.226;14.344;2023-03-01T05:19:02;45.33;;;40.72;;
77111;SDS011;66064;50.226;14.344;2023-03-01T05:21:40;51.08;;;45.85;;
77111;SDS011;66064;50.226;14.344;2023-03-01T05:24:26;50.75;;;45.63;;
77111;SDS011;66064;50.226;14.344;2023-03-01T05:26:52;52.67;;;47.08;;
77111;SDS011;66064;50.226;14.344;2023-03-01T05:29:19;48.25;;;44.17;;
77111;SDS011;66064;50.226;14.344;2023-03-01T05:31:55;41.85;;;37.38;;
77111;SDS011;66064;50.226;14.344;2023-03-01T05:34:29;38.65;;;35.00;;
77111;SDS011;66064;50.226;14.344;2023-03-01T05:36:56;48.83;;;43.95;;
77111;SDS011;66064;50.226;14.344;2023-03-01T05:39:23;68.07;;;61.88;;
77111;SDS011;66064;50.226;14.344;2023-03-01T05:41:54;50.00;;;44.42;;
77111;SDS011;66064;50.226;14.344;2023-03-01T05:44:22;65.85;;;48.95;;
77111;SDS011;66064;50.226;14.344;2023-03-01T05:46:48;70.57;;;58.25;;
77111;SDS011;66064;50.226;14.344;2023-03-01T05:49:15;59.00;;;50.65;;
77111;SDS011;66064;50.226;14.344;2023-03-01T05:51:41;78.07;;;53.25;;
77111;SDS011;66064;50.226;14.344;2023-03-01T05:54:08;58.35;;;52.03;;
77111;SDS011;66064;50.226;14.344;2023-03-01T05:56:35;56.55;;;45.75;;
77111;SDS011;66064;50.226;14.344;2023-03-01T05:59:02;54.70;;;48.78;;
77111;SDS011;66064;50.226;14.344;2023-03-01T06:01:33;58.85;;;52.72;;
77111;SDS011;66064;50.226;14.344;2023-03-01T06:03:59;54.67;;;43.05;;
77111;SDS011;66064;50.226;14.344;2023-03-01T06:06:25;58.47;;;49.22;;
77111;SDS011;66064;50.226;14.344;2023-03-01T06:08:51;62.75;;;54.58;;
77111;SDS011;66064;50.226;14.344;2023-03-01T06:11:18;66.32;;;53.20;;
77111;SDS011;66064;50.226;14.344;2023-03-01T06:13:44;66.85;;;54.78;;
77111;SDS011;66064;50.226;14.344;2023-03-01T06:16:11;60.50;;;53.38;;
77111;SDS011;66064;50.226;14.344;2023-03-01T06:18:38;69.90;;;52.40;;
77111;SDS011;66064;50.226;14.344;2023-03-01T06:21:05;70.95;;;51.00;;
77111;SDS011;66064;50.226;14.344;2023-03-01T06:23:32;62.22;;;55.58;;
77111;SDS011;66064;50.226;14.344;2023-03-01T06:25:57;60.45;;;50.83;;
77111;SDS011;66064;50.226;14.344;2023-03-01T06:28:24;53.83;;;44.50;;
77111;SDS011;66064;50.226;14.344;2023-03-01T06:30:50;57.38;;;51.42;;
77111;SDS011;66064;50.226;14.344;2023-03-01T06:33:17;58.90;;;50.13;;
77111;SDS011;66064;50.226;14.344;2023-03-01T06:35:45;55.42;;;49.33;;
77111;SDS011;66064;50.226;14.344;2023-03-01T06:38:12;59.70;;;47.95;;
77111;SDS011;66064;50.226;14.344;2023-03-01T06:40:40;44.88;;;40.10;;
77111;SDS011;66064;50.226;14.344;2023-03-01T06:43:06;46.58;;;39.92;;
77111;SDS011;66064;50.226;14.344;2023-03-01T06:45:33;49.40;;;42.72;;
77111;SDS011;66064;50.226;14.344;2023-03-01T06:48:03;56.85;;;46.03;;
77111;SDS011;66064;50.226;14.344;2023-03-01T06:50:32;54.55;;;41.97;;
77111;SDS011;66064;50.226;14.344;2023-03-01T06:52:59;62.95;;;46.50;;
77111;SDS011;66064;50.226;14.344;2023-03-01T06:55:25;72.82;;;52.63;;
77111;SDS011;66064;50.226;14.344;2023-03-01T06:57:58;61.58;;;51.88;;
77111;SDS011;66064;50.226;14.344;2023-03-01T07:00:25;62.08;;;45.67;;
77111;SDS011;66064;50.226;14.344;2023-03-01T07:02:52;58.65;;;42.20;;
77111;SDS011;66064;50.226;14.344;2023-03-01T07:05:18;56.28;;;39.70;;
77111;SDS011;66064;50.226;14.344;2023-03-01T07:07:44;53.22;;;37.70;;
77111;SDS011;66064;50.226;14.344;2023-03-01T07:10:10;55.33;;;39.75;;
77111;SDS011;66064;50.226;14.344;2023-03-01T07:12:37;57.55;;;37.40;;
77111;SDS011;66064;50.226;14.344;2023-03-01T07:15:03;54.30;;;33.13;;
77111;SDS011;66064;50.226;14.344;2023-03-01T07:17:30;51.67;;;35.67;;
77111;SDS011;66064;50.226;14.344;2023-03-01T07:19:56;56.40;;;38.78;;
77111;SDS011;66064;50.226;14.344;2023-03-01T07:22:22;53.72;;;37.55;;
77111;SDS011;66064;50.226;14.344;2023-03-01T07:24:48;53.90;;;37.55;;
77111;SDS011;66064;50.226;14.344;2023-03-01T07:27:14;60.38;;;39.15;;
77111;SDS011;66064;50.226;14.344;2023-03-01T07:29:39;55.30;;;38.20;;
77111;SDS011;66064;50.226;14.344;2023-03-01T07:32:06;60.03;;;42.72;;
77111;SDS011;66064;50.226;14.344;2023-03-01T07:34:32;55.00;;;36.70;;
77111;SDS011;66064;50.226;14.344;2023-03-01T07:36:58;55.45;;;36.92;;
77111;SDS011;66064;50.226;14.344;2023-03-01T07:39:24;58.95;;;39.35;;
77111;SDS011;66064;50.226;14.344;2023-03-01T07:41:50;57.58;;;35.63;;
77111;SDS011;66064;50.226;14.344;2023-03-01T07:44:16;54.08;;;37.53;;
77111;SDS011;66064;50.226;14.344;2023-03-01T07:46:43;48.25;;;35.80;;
77111;SDS011;66064;50.226;14.344;2023-03-01T07:49:09;52.00;;;35.90;;
77111;SDS011;66064;50.226;14.344;2023-03-01T07:51:36;48.88;;;36.05;;
77111;SDS011;66064;50.226;14.344;2023-03-01T07:54:01;46.90;;;33.17;;
77111;SDS011;66064;50.226;14.344;2023-03-01T07:56:28;51.97;;;34.88;;
77111;SDS011;66064;50.226;14.344;2023-03-01T07:58:54;53.20;;;35.35;;
77111;SDS011;66064;50.226;14.344;2023-03-01T08:01:20;49.10;;;34.97;;
77111;SDS011;66064;50.226;14.344;2023-03-01T08:03:47;50.33;;;37.00;;
77111;SDS011;66064;50.226;14.344;2023-03-01T08:06:14;52.03;;;37.13;;
77111;SDS011;66064;50.226;14.344;2023-03-01T08:08:42;56.70;;;36.47;;
77111;SDS011;66064;50.226;14.344;2023-03-01T08:11:09;51.85;;;38.08;;
77111;SDS011;66064;50.226;14.344;2023-03-01T08:13:37;53.47;;;35.13;;
77111;SDS011;66064;50.226;14.344;2023-03-01T08:16:04;48.22;;;33.33;;
77111;SDS011;66064;50.226;14.344;2023-03-01T08:18:32;50.40;;;35.38;;
77111;SDS011;66064;50.226;14.344;2023-03-01T08:21:06;51.97;;;35.63;;
77111;SDS011;66064;50.226;14.344;2023-03-01T08:23:42;50.65;;;36.17;;
77111;SDS011;66064;50.226;14.344;2023-03-01T08:26:10;45.55;;;31.10;;
77111;SDS011;66064;50.226;14.344;2023-03-01T08:28:39;50.38;;;33.90;;
77111;SDS011;66064;50.226;14.344;2023-03-01T08:31:16;40.88;;;33.72;;
77111;SDS011;66064;50.226;14.344;2023-03-01T08:33:47;50.58;;;30.95;;
77111;SDS011;66064;50.226;14.344;2023-03-01T08:36:17;41.15;;;30.80;;
77111;SDS011;66064;50.226;14.344;2023-03-01T08:38:43;42.33;;;32.30;;
77111;SDS011;66064;50.226;14.344;2023-03-01T08:41:09;40.38;;;29.17;;
77111;SDS011;66064;50.226;14.344;2023-03-01T08:43:35;40.00;;;28.60;;
77111;SDS011;66064;50.226;14.344;2023-03-01T08:46:01;42.85;;;29.38;;
77111;SDS011;66064;50.226;14.344;2023-03-01T08:48:27;39.58;;;30.85;;
77111;SDS011;66064;50.226;14.344;2023-03-01T08:50:54;41.72;;;30.00;;
77111;SDS011;66064;50.226;14.344;2023-03-01T08:53:20;32.83;;;25.27;;
77111;SDS011;66064;50.226;14.344;2023-03-01T08:55:46;35.65;;;27.20;;
77111;SDS011;66064;50.226;14.344;2023-03-01T08:58:12;39.50;;;29.00;;
77111;SDS011;66064;50.226;14.344;2023-03-01T09:00:38;41.15;;;28.45;;
77111;SDS011;66064;50.226;14.344;2023-03-01T09:03:05;35.75;;;26.13;;
77111;SDS011;66064;50.226;14.344;2023-03-01T09:05:32;38.20;;;27.65;;
77111;SDS011;66064;50.226;14.344;2023-03-01T09:07:59;42.72;;;28.33;;
77111;SDS011;66064;50.226;14.344;2023-03-01T09:10:25;34.83;;;25.63;;
77111;SDS011;66064;50.226;14.344;2023-03-01T09:12:51;40.30;;;29.35;;
77111;SDS011;66064;50.226;14.344;2023-03-01T09:15:17;38.55;;;25.45;;
77111;SDS011;66064;50.226;14.344;2023-03-01T09:17:43;36.65;;;28.75;;
77111;SDS011;66064;50.226;14.344;2023-03-01T09:20:09;39.67;;;26.42;;
77111;SDS011;66064;50.226;14.344;2023-03-01T09:22:35;39.47;;;29.27;;
77111;SDS011;66064;50.226;14.344;2023-03-01T09:25:02;34.65;;;24.83;;
77111;SDS011;66064;50.226;14.344;2023-03-01T09:27:28;37.10;;;25.70;;
77111;SDS011;66064;50.226;14.344;2023-03-01T09:29:54;45.22;;;28.50;;
77111;SDS011;66064;50.226;14.344;2023-03-01T09:32:21;41.05;;;24.52;;
77111;SDS011;66064;50.226;14.344;2023-03-01T09:34:47;30.85;;;23.42;;
77111;SDS011;66064;50.226;14.344;2023-03-01T09:37:32;36.72;;;29.15;;
77111;SDS011;66064;50.226;14.344;2023-03-01T09:39:58;40.08;;;26.85;;
77111;SDS011;66064;50.226;14.344;2023-03-01T09:42:25;33.85;;;25.58;;
77111;SDS011;66064;50.226;14.344;2023-03-01T09:45:00;33.65;;;24.63;;
77111;SDS011;66064;50.226;14.344;2023-03-01T09:47:33;35.50;;;25.88;;
77111;SDS011;66064;50.226;14.344;2023-03-01T09:50:12;31.75;;;22.63;;
77111;SDS011;66064;50.226;14.344;2023-03-01T09:53:31;32.78;;;25.55;;
77111;SDS011;66064;50.226;14.344;2023-03-01T09:55:48;30.80;;;23.10;;
77111;SDS011;66064;50.226;14.344;2023-03-01T10:06:35;34.08;;;24.90;;
77111;SDS011;66064;50.226;14.344;2023-03-01T10:09:10;35.85;;;26.05;;
77111;SDS011;66064;50.226;14.344;2023-03-01T10:11:45;35.42;;;26.05;;
77111;SDS011;66064;50.226;14.344;2023-03-01T10:16:59;33.78;;;23.45;;
77111;SDS011;66064;50.226;14.344;2023-03-01T10:19:41;30.23;;;22.63;;
77111;SDS011;66064;50.226;14.344;2023-03-01T10:22:15;32.42;;;24.05;;
77111;SDS011;66064;50.226;14.344;2023-03-01T10:24:46;32.60;;;26.23;;
77111;SDS011;66064;50.226;14.344;2023-03-01T10:27:18;32.97;;;24.73;;
77111;SDS011;66064;50.226;14.344;2023-03-01T10:32:26;36.80;;;25.45;;
77111;SDS011;66064;50.226;14.344;2023-03-01T10:34:52;29.55;;;22.48;;
77111;SDS011;66064;50.226;14.344;2023-03-01T10:37:19;29.63;;;25.15;;
77111;SDS011;66064;50.226;14.344;2023-03-01T10:39:58;26.58;;;20.08;;
77111;SDS011;66064;50.226;14.344;2023-03-01T10:47:42;28.67;;;23.77;;
77111;SDS011;66064;50.226;14.344;2023-03-01T10:50:18;29.65;;;23.55;;
77111;SDS011;66064;50.226;14.344;2023-03-01T10:53:00;32.17;;;23.25;;
77111;SDS011;66064;50.226;14.344;2023-03-01T10:55:36;27.92;;;21.00;;
77111;SDS011;66064;50.226;14.344;2023-03-01T11:00:52;26.67;;;20.52;;
77111;SDS011;66064;50.226;14.344;2023-03-01T11:03:24;33.42;;;23.65;;
77111;SDS011;66064;50.226;14.344;2023-03-01T11:05:53;27.92;;;22.17;;
77111;SDS011;66064;50.226;14.344;2023-03-01T11:08:34;27.17;;;21.30;;
77111;SDS011;66064;50.226;14.344;2023-03-01T11:11:07;28.08;;;21.50;;
77111;SDS011;66064;50.226;14.344;2023-03-01T11:13:33;29.88;;;21.60;;
77111;SDS011;66064;50.226;14.344;2023-03-01T11:16:00;29.77;;;21.52;;
77111;SDS011;66064;50.226;14.344;2023-03-01T11:20:55;27.58;;;20.38;;
77111;SDS011;66064;50.226;14.344;2023-03-01T11:23:23;29.40;;;21.67;;
77111;SDS011;66064;50.226;14.344;2023-03-01T11:25:54;31.63;;;21.98;;
77111;SDS011;66064;50.226;14.344;2023-03-01T11:28:22;28.23;;;21.50;;
77111;SDS011;66064;50.226;14.344;2023-03-01T11:30:51;31.20;;;22.25;;
77111;SDS011;66064;50.226;14.344;2023-03-01T11:38:55;32.22;;;23.45;;
77111;SDS011;66064;50.226;14.344;2023-03-01T11:41:26;35.25;;;24.83;;
77111;SDS011;66064;50.226;14.344;2023-03-01T11:43:57;36.05;;;25.33;;
77111;SDS011;66064;50.226;14.344;2023-03-01T12:16:40;27.40;;;22.13;;
77111;SDS011;66064;50.226;14.344;2023-03-01T12:31:06;28.83;;;23.92;;
77111;SDS011;66064;50.226;14.344;2023-03-01T12:36:07;29.85;;;22.77;;
77111;SDS011;66064;50.226;14.344;2023-03-01T12:38:40;29.42;;;21.67;;
77111;SDS011;66064;50.226;14.344;2023-03-01T12:43:56;29.20;;;21.98;;
77111;SDS011;66064;50.226;14.344;2023-03-01T12:49:30;27.58;;;20.35;;
77111;SDS011;66064;50.226;14.344;2023-03-01T12:52:13;31.45;;;23.85;;
77111;SDS011;66064;50.226;14.344;2023-03-01T12:54:45;29.60;;;22.40;;
77111;SDS011;66064;50.226;14.344;2023-03-01T12:59:59;27.33;;;21.48;;
77111;SDS011;66064;50.226;14.344;2023-03-01T13:10:56;28.20;;;20.52;;
77111;SDS011;66064;50.226;14.344;2023-03-01T13:13:27;26.55;;;21.35;;
77111;SDS011;66064;50.226;14.344;2023-03-01T13:15:54;30.70;;;22.23;;
77111;SDS011;66064;50.226;14.344;2023-03-01T13:20:49;30.13;;;22.23;;
77111;SDS011;66064;50.226;14.344;2023-03-01T13:26:08;27.55;;;21.27;;
77111;SDS011;66064;50.226;14.344;2023-03-01T13:28:50;32.05;;;24.83;;
77111;SDS011;66064;50.226;14.344;2023-03-01T13:33:52;29.98;;;20.80;;
77111;SDS011;66064;50.226;14.344;2023-03-01T13:44:12;31.48;;;22.90;;
77111;SDS011;66064;50.226;14.344;2023-03-01T13:46:43;30.35;;;27.02;;
77111;SDS011;66064;50.226;14.344;2023-03-01T13:49:11;27.95;;;22.27;;
77111;SDS011;66064;50.226;14.344;2023-03-01T13:51:50;31.20;;;24.23;;
77111;SDS011;66064;50.226;14.344;2023-03-01T13:54:21;29.42;;;21.15;;
77111;SDS011;66064;50.226;14.344;2023-03-01T13:56:55;32.75;;;24.92;;
77111;SDS011;66064;50.226;14.344;2023-03-01T13:59:22;30.48;;;25.92;;
77111;SDS011;66064;50.226;14.344;2023-03-01T14:01:53;27.23;;;22.40;;
77111;SDS011;66064;50.226;14.344;2023-03-01T14:04:28;26.63;;;20.75;;
77111;SDS011;66064;50.226;14.344;2023-03-01T14:07:18;28.27;;;22.27;;
77111;SDS011;66064;50.226;14.344;2023-03-01T14:09:46;31.75;;;21.73;;
77111;SDS011;66064;50.226;14.344;2023-03-01T14:15:34;30.23;;;21.90;;
77111;SDS011;66064;50.226;14.344;2023-03-01T14:20:48;26.73;;;21.92;;
77111;SDS011;66064;50.226;14.344;2023-03-01T14:23:19;30.38;;;23.00;;
77111;SDS011;66064;50.226;14.344;2023-03-01T14:30:45;27.75;;;20.48;;
77111;SDS011;66064;50.226;14.344;2023-03-01T14:36:00;31.52;;;22.98;;
77111;SDS011;66064;50.226;14.344;2023-03-01T14:38:38;29.45;;;23.73;;
77111;SDS011;66064;50.226;14.344;2023-03-01T14:41:22;30.50;;;22.77;;
77111;SDS011;66064;50.226;14.344;2023-03-01T14:43:51;27.48;;;19.67;;
77111;SDS011;66064;50.226;14.344;2023-03-01T14:46:25;32.03;;;20.52;;
77111;SDS011;66064;50.226;14.344;2023-03-01T14:48:57;34.35;;;23.17;;
77111;SDS011;66064;50.226;14.344;2023-03-01T14:51:27;34.53;;;25.25;;
77111;SDS011;66064;50.226;14.344;2023-03-01T14:53:54;23.75;;;19.13;;
77111;SDS011;66064;50.226;14.344;2023-03-01T14:56:20;25.00;;;20.13;;
77111;SDS011;66064;50.226;14.344;2023-03-01T14:58:50;28.88;;;21.27;;
77111;SDS011;66064;50.226;14.344;2023-03-01T15:01:17;32.90;;;21.15;;
77111;SDS011;66064;50.226;14.344;2023-03-01T15:03:45;31.08;;;21.00;;
77111;SDS011;66064;50.226;14.344;2023-03-01T15:06:14;29.35;;;21.05;;
77111;SDS011;66064;50.226;14.344;2023-03-01T15:08:47;28.98;;;20.50;;
77111;SDS011;66064;50.226;14.344;2023-03-01T15:11:21;30.25;;;27.23;;
77111;SDS011;66064;50.226;14.344;2023-03-01T15:13:50;29.30;;;20.58;;
77111;SDS011;66064;50.226;14.344;2023-03-01T15:16:27;27.17;;;21.70;;
77111;SDS011;66064;50.226;14.344;2023-03-01T15:18:57;23.75;;;19.98;;
77111;SDS011;66064;50.226;14.344;2023-03-01T15:21:26;22.33;;;17.20;;
77111;SDS011;66064;50.226;14.344;2023-03-01T15:26:40;28.83;;;20.80;;
77111;SDS011;66064;50.226;14.344;2023-03-01T15:29:28;27.73;;;22.80;;
77111;SDS011;66064;50.226;14.344;2023-03-01T15:34:30;31.75;;;23.25;;
77111;SDS011;66064;50.226;14.344;2023-03-01T15:37:00;28.27;;;19.13;;
77111;SDS011;66064;50.226;14.344;2023-03-01T15:41:56;31.27;;;23.15;;
77111;SDS011;66064;50.226;14.344;2023-03-01T15:44:26;32.80;;;23.52;;
77111;SDS011;66064;50.226;14.344;2023-03-01T15:46:54;36.45;;;32.70;;
77111;SDS011;66064;50.226;14.344;2023-03-01T15:52:02;31.45;;;22.40;;
77111;SDS011;66064;50.226;14.344;2023-03-01T15:54:29;27.55;;;19.15;;
77111;SDS011;66064;50.226;14.344;2023-03-01T15:56:55;35.08;;;25.70;;
77111;SDS011;66064;50.226;14.344;2023-03-01T15:59:21;33.22;;;26.60;;
77111;SDS011;66064;50.226;14.344;2023-03-01T16:01:47;41.55;;;31.50;;
77111;SDS011;66064;50.226;14.344;2023-03-01T16:04:15;41.90;;;30.40;;
77111;SDS011;66064;50.226;14.344;2023-03-01T16:06:46;50.08;;;29.25;;
77111;SDS011;66064;50.226;14.344;2023-03-01T16:09:20;35.92;;;25.52;;
77111;SDS011;66064;50.226;14.344;2023-03-01T16:11:48;31.98;;;24.35;;
77111;SDS011;66064;50.226;14.344;2023-03-01T16:14:14;34.45;;;26.02;;
77111;SDS011;66064;50.226;14.344;2023-03-01T16:16:41;34.08;;;25.10;;
77111;SDS011;66064;50.226;14.344;2023-03-01T16:19:08;35.58;;;26.88;;
77111;SDS011;66064;50.226;14.344;2023-03-01T16:21:34;41.42;;;30.13;;
77111;SDS011;66064;50.226;14.344;2023-03-01T16:24:00;44.60;;;31.35;;
77111;SDS011;66064;50.226;14.344;2023-03-01T16:26:26;34.38;;;27.73;;
77111;SDS011;66064;50.226;14.344;2023-03-01T16:28:55;38.08;;;30.15;;
77111;SDS011;66064;50.226;14.344;2023-03-01T16:31:22;55.92;;;36.38;;
77111;SDS011;66064;50.226;14.344;2023-03-01T16:33:53;51.70;;;35.20;;
77111;SDS011;66064;50.226;14.344;2023-03-01T16:36:20;70.25;;;43.72;;
77111;SDS011;66064;50.226;14.344;2023-03-01T16:38:49;45.95;;;33.80;;
77111;SDS011;66064;50.226;14.344;2023-03-01T16:41:17;46.50;;;33.40;;
77111;SDS011;66064;50.226;14.344;2023-03-01T16:43:45;45.92;;;31.15;;
77111;SDS011;66064;50.226;14.344;2023-03-01T16:46:12;57.72;;;35.22;;
77111;SDS011;66064;50.226;14.344;2023-03-01T16:48:40;52.15;;;33.25;;